createdAt,value
2019-05-12T00:01:12.744Z,38.75
2019-05-12T00:03:40.932Z,38.70
2019-05-12T00:06:08.842Z,38.70
2019-05-12T00:08:38.131Z,38.58
2019-05-12T00:11:08.767Z,38.61
2019-05-12T00:13:38.500Z,38.63
2019-05-12T00:16:08.626Z,38.63
2019-05-12T00:18:37.812Z,38.63
2019-05-12T00:21:08.645Z,38.88
2019-05-12T00:23:58.056Z,38.97
2019-05-12T00:26:28.148Z,38.53
2019-05-12T00:28:58.695Z,38.53
2019-05-12T00:31:28.003Z,38.66
2019-05-12T00:33:58.678Z,38.72
2019-05-12T00:36:29.092Z,38.65
2019-05-12T00:38:57.987Z,38.65
2019-05-12T00:41:28.255Z,38.45
2019-05-12T00:43:58.255Z,38.66
2019-05-12T00:46:28.020Z,38.66
2019-05-12T00:48:58.540Z,38.83
2019-05-12T00:51:28.625Z,38.83
2019-05-12T00:55:28.900Z,38.85
2019-05-12T00:57:58.137Z,38.85
2019-05-12T01:00:29.235Z,38.85
2019-05-12T01:02:58.208Z,38.84
2019-05-12T01:05:26.535Z,38.84
2019-05-12T01:07:57.922Z,38.88
2019-05-12T01:10:28.632Z,38.93
2019-05-12T01:12:58.591Z,38.83
2019-05-12T01:15:28.618Z,38.82
2019-05-12T01:17:58.604Z,38.97
2019-05-12T01:20:28.310Z,38.97
2019-05-12T01:22:57.998Z,38.90
2019-05-12T01:25:28.742Z,38.81
2019-05-12T01:27:55.891Z,38.90
2019-05-12T01:30:23.794Z,38.91
2019-05-12T01:32:51.964Z,38.90
2019-05-12T01:35:19.290Z,38.95
2019-05-12T01:37:48.404Z,38.94
2019-05-12T01:40:16.098Z,38.87
2019-05-12T01:42:48.391Z,38.98
2019-05-12T01:45:18.045Z,38.88
2019-05-12T01:47:48.453Z,38.88
2019-05-12T01:50:17.817Z,39.01
2019-05-12T01:52:47.820Z,38.90
2019-05-12T01:55:15.361Z,38.90
2019-05-12T01:57:42.651Z,38.58
2019-05-12T02:00:11.229Z,38.87
2019-05-12T02:02:39.409Z,38.96
2019-05-12T02:05:08.639Z,39.00
2019-05-12T02:07:41.804Z,39.06
2019-05-12T02:10:10.836Z,39.06
2019-05-12T02:12:39.056Z,39.11
2019-05-12T02:15:08.135Z,39.12
2019-05-12T02:17:39.139Z,38.64
2019-05-12T02:20:07.785Z,39.01
2019-05-12T02:22:38.610Z,39.01
2019-05-12T02:25:07.949Z,38.92
2019-05-12T02:27:35.388Z,38.97
2019-05-12T02:30:03.847Z,39.02
2019-05-12T02:32:43.264Z,39.02
2019-05-12T02:35:01.181Z,39.07
2019-05-12T02:37:29.367Z,39.08
2019-05-12T02:39:58.663Z,39.15
2019-05-12T02:42:27.585Z,39.15
2019-05-12T02:44:56.076Z,39.22
2019-05-12T02:47:24.424Z,39.21
2019-05-12T02:49:54.464Z,39.12
2019-05-12T02:52:24.950Z,39.18
2019-05-12T02:54:59.573Z,39.18
2019-05-12T02:57:25.714Z,39.10
2019-05-12T02:59:54.293Z,39.10
2019-05-12T03:02:24.452Z,38.97
2019-05-12T03:04:54.886Z,39.05
2019-05-12T03:07:25.436Z,39.05
2019-05-12T03:09:55.172Z,39.06
2019-05-12T03:12:25.623Z,39.12
2019-05-12T03:14:54.419Z,38.94
2019-05-12T03:17:25.255Z,38.98
2019-05-12T03:21:24.300Z,38.90
2019-05-12T03:23:54.865Z,38.90
2019-05-12T03:26:24.719Z,39.09
2019-05-12T03:28:55.567Z,39.25
2019-05-12T03:31:30.575Z,39.00
2019-05-12T03:33:59.530Z,39.16
2019-05-12T03:36:31.835Z,39.13
2019-05-12T03:38:55.138Z,39.13
2019-05-12T03:41:25.081Z,39.28
2019-05-12T03:43:54.966Z,39.28
2019-05-12T03:46:24.818Z,39.19
2019-05-12T03:48:55.294Z,38.91
2019-05-12T03:51:25.345Z,39.35
2019-05-12T03:53:55.671Z,39.17
2019-05-12T03:56:26.013Z,39.17
2019-05-12T03:58:54.944Z,39.07
2019-05-12T04:01:25.476Z,39.06
2019-05-12T04:03:54.278Z,39.06
2019-05-12T04:06:24.513Z,39.00
2019-05-12T04:08:54.998Z,39.10
2019-05-12T04:11:25.011Z,39.23
2019-05-12T04:13:55.054Z,38.76
2019-05-12T04:16:24.755Z,39.15
2019-05-12T04:18:55.225Z,39.04
2019-05-12T04:21:24.448Z,39.04
2019-05-12T04:23:54.787Z,38.58
2019-05-12T04:26:25.350Z,39.22
2019-05-12T04:28:54.949Z,38.97
2019-05-12T04:31:24.888Z,38.97
2019-05-12T04:33:54.664Z,38.81
2019-05-12T04:36:25.029Z,38.69
2019-05-12T04:38:55.791Z,38.70
2019-05-12T04:41:26.079Z,38.66
2019-05-12T04:43:55.706Z,38.66
2019-05-12T04:46:25.436Z,38.66
2019-05-12T04:48:54.853Z,38.91
2019-05-12T04:51:25.944Z,38.63
2019-05-12T04:53:55.010Z,38.81
2019-05-12T04:56:25.007Z,38.81
2019-05-12T04:58:54.707Z,38.71
2019-05-12T05:01:25.409Z,38.71
2019-05-12T05:03:54.532Z,38.62
2019-05-12T05:06:25.074Z,38.53
2019-05-12T05:08:54.502Z,38.53
2019-05-12T05:11:24.956Z,38.59
2019-05-12T05:13:54.755Z,38.53
2019-05-12T05:16:24.859Z,38.43
2019-05-12T05:18:54.301Z,38.22
2019-05-12T05:21:24.138Z,38.71
2019-05-12T05:23:53.692Z,38.92
2019-05-12T05:26:27.960Z,38.78
2019-05-12T05:28:54.093Z,38.78
2019-05-12T05:31:21.103Z,38.44
2019-05-12T05:33:50.252Z,38.44
2019-05-12T05:36:19.875Z,38.64
2019-05-12T05:38:51.071Z,38.48
2019-05-12T05:41:17.064Z,38.48
2019-05-12T05:43:48.586Z,38.42
2019-05-12T05:46:15.600Z,38.50
2019-05-12T05:48:44.063Z,38.57
2019-05-12T05:51:13.617Z,38.57
2019-05-12T05:53:44.251Z,38.58
2019-05-12T05:56:14.246Z,38.69
2019-05-12T05:58:49.589Z,38.64
2019-05-12T06:01:13.749Z,38.64
2019-05-12T06:03:44.049Z,38.51
2019-05-12T06:06:13.055Z,38.62
2019-05-12T06:08:44.402Z,38.44
2019-05-12T06:11:14.834Z,38.51
2019-05-12T06:13:44.278Z,38.61
2019-05-12T06:16:20.158Z,38.54
2019-05-12T06:18:43.969Z,38.54
2019-05-12T06:21:13.783Z,38.40
2019-05-12T06:23:43.432Z,38.43
2019-05-12T06:26:14.028Z,38.46
2019-05-12T06:28:41.841Z,38.47
2019-05-12T06:31:13.573Z,38.40
2019-05-12T06:33:40.780Z,38.29
2019-05-12T06:36:14.133Z,37.67
2019-05-12T06:38:40.544Z,38.34
2019-05-12T06:41:12.419Z,38.34
2019-05-12T06:44:17.382Z,38.10
2019-05-12T06:46:48.179Z,38.24
2019-05-12T06:49:17.657Z,37.95
2019-05-12T06:51:45.301Z,37.83
2019-05-12T06:54:15.125Z,37.45
2019-05-12T06:56:43.550Z,37.45
2019-05-12T06:59:12.351Z,37.21
2019-05-12T07:01:45.043Z,37.21
2019-05-12T07:04:14.120Z,37.25
2019-05-12T07:06:44.142Z,37.04
2019-05-12T07:14:27.269Z,36.72
2019-05-12T07:17:01.791Z,36.86
2019-05-12T07:19:29.960Z,36.86
2019-05-12T07:22:00.055Z,36.62
2019-05-12T07:24:28.086Z,36.62
2019-05-12T07:27:04.106Z,36.77
2019-05-12T07:29:26.781Z,36.85
2019-05-12T07:31:54.439Z,36.47
2019-05-12T07:34:24.122Z,36.47
2019-05-12T07:36:53.835Z,36.92
2019-05-12T07:39:24.181Z,36.92
2019-05-12T07:41:54.962Z,36.67
2019-05-12T07:44:25.022Z,36.57
2019-05-12T07:46:54.069Z,36.34
2019-05-12T07:49:34.531Z,36.54
2019-05-12T07:51:54.239Z,36.53
2019-05-12T07:54:23.610Z,36.53
2019-05-12T07:56:54.000Z,36.81
2019-05-12T07:59:26.656Z,36.50
2019-05-12T08:01:54.998Z,36.21
2019-05-12T08:04:23.903Z,36.14
2019-05-12T08:06:53.824Z,36.11
2019-05-12T08:09:24.085Z,36.11
2019-05-12T08:11:54.083Z,35.79
2019-05-12T08:14:28.531Z,35.64
2019-05-12T08:16:54.259Z,35.88
2019-05-12T08:19:25.575Z,35.88
2019-05-12T08:21:53.861Z,35.86
2019-05-12T08:24:23.682Z,35.81
2019-05-12T08:26:59.605Z,35.76
2019-05-12T08:29:24.261Z,35.82
2019-05-12T08:31:54.807Z,35.82
2019-05-12T08:34:23.789Z,35.82
2019-05-12T08:36:57.923Z,35.41
2019-05-12T08:41:14.419Z,35.50
2019-05-12T08:43:47.014Z,35.68
2019-05-12T08:46:15.708Z,35.75
2019-05-12T08:48:44.720Z,35.30
2019-05-12T08:51:16.754Z,35.30
2019-05-12T08:53:44.062Z,35.07
2019-05-12T08:56:14.757Z,35.11
2019-05-12T08:58:48.281Z,34.94
2019-05-12T09:01:13.669Z,35.10
2019-05-12T09:03:44.115Z,35.10
2019-05-12T09:06:15.513Z,34.93
2019-05-12T09:08:45.222Z,34.88
2019-05-12T09:11:13.934Z,35.01
2019-05-12T09:14:41.319Z,34.87
2019-05-12T09:17:10.616Z,35.10
2019-05-12T09:19:40.637Z,35.10
2019-05-12T09:22:16.995Z,35.06
2019-05-12T09:24:40.675Z,34.99
2019-05-12T09:27:09.163Z,34.99
2019-05-12T09:29:37.532Z,34.69
2019-05-12T09:32:09.531Z,34.76
2019-05-12T09:34:36.086Z,34.57
2019-05-12T09:37:04.396Z,34.57
2019-05-12T09:39:34.081Z,34.70
2019-05-12T09:42:03.827Z,34.75
2019-05-12T09:47:21.774Z,34.79
2019-05-12T09:49:40.230Z,34.62
2019-05-12T09:52:13.981Z,34.92
2019-05-12T09:54:40.921Z,34.92
2019-05-12T09:57:08.874Z,34.50
2019-05-12T09:59:37.488Z,34.63
2019-05-12T10:02:10.406Z,35.66
2019-05-12T10:04:37.147Z,35.66
2019-05-12T10:07:07.527Z,34.91
2019-05-12T10:09:36.309Z,33.67
2019-05-12T10:12:05.597Z,33.07
2019-05-12T10:14:35.095Z,33.07
2019-05-12T10:19:23.522Z,33.17
2019-05-12T10:21:55.191Z,33.17
2019-05-12T10:24:24.109Z,32.92
2019-05-12T10:26:54.176Z,33.01
2019-05-12T10:29:24.387Z,33.63
2019-05-12T10:31:53.696Z,33.22
2019-05-12T10:34:23.875Z,33.22
2019-05-12T10:36:53.746Z,33.08
2019-05-12T10:39:24.330Z,34.05
2019-05-12T10:41:54.603Z,34.05
2019-05-12T10:44:22.506Z,34.15
2019-05-12T10:46:53.897Z,34.15
2019-05-12T10:49:23.338Z,33.67
2019-05-12T10:51:53.775Z,33.31
2019-05-12T10:54:24.250Z,33.05
2019-05-12T10:56:54.614Z,33.05
2019-05-12T10:59:32.140Z,33.09
2019-05-12T11:01:55.301Z,33.09
2019-05-12T11:04:35.216Z,33.34
2019-05-12T11:06:53.815Z,33.20
2019-05-12T11:09:27.331Z,33.53
2019-05-12T11:11:54.158Z,33.71
2019-05-12T11:14:26.336Z,33.43
2019-05-12T11:16:55.444Z,33.90
2019-05-12T11:19:24.993Z,34.68
2019-05-12T11:21:54.630Z,35.25
2019-05-12T11:24:22.602Z,35.25
2019-05-12T11:26:53.679Z,35.59
2019-05-12T11:29:23.567Z,34.52
2019-05-12T11:32:47.820Z,33.53
2019-05-12T11:35:17.672Z,33.53
2019-05-12T11:37:46.543Z,34.68
2019-05-12T11:40:14.770Z,34.45
2019-05-12T11:42:46.792Z,34.45
2019-05-12T11:45:13.791Z,33.85
2019-05-12T11:47:44.663Z,33.85
2019-05-12T11:50:13.261Z,33.91
2019-05-12T11:52:46.076Z,35.44
2019-05-12T11:55:13.458Z,35.19
2019-05-12T11:57:43.756Z,35.19
2019-05-12T12:01:19.792Z,35.05
2019-05-12T12:03:49.455Z,35.05
2019-05-12T12:06:17.859Z,35.17
2019-05-12T12:08:46.853Z,34.67
2019-05-12T12:11:21.926Z,34.67
2019-05-12T12:13:46.103Z,33.98
2019-05-12T12:16:15.523Z,33.98
2019-05-12T12:18:46.606Z,33.87
2019-05-12T12:21:15.125Z,32.84
2019-05-12T12:23:48.787Z,32.84
2019-05-12T12:26:30.007Z,32.91
2019-05-12T12:28:55.858Z,33.06
2019-05-12T12:31:24.142Z,33.06
2019-05-12T12:33:53.600Z,33.04
2019-05-12T12:36:23.694Z,33.61
2019-05-12T12:38:53.360Z,33.87
2019-05-12T12:41:23.577Z,33.87
2019-05-12T12:43:54.024Z,33.98
2019-05-12T12:46:26.577Z,34.21
2019-05-12T12:48:55.049Z,33.58
2019-05-12T12:51:24.788Z,33.58
2019-05-12T12:53:54.179Z,33.19
2019-05-12T12:56:25.152Z,32.54
2019-05-12T12:58:55.258Z,32.54
2019-05-12T13:02:54.378Z,29.20
2019-05-12T13:05:23.951Z,29.20
2019-05-12T13:07:53.473Z,26.80
2019-05-12T13:10:24.789Z,26.17
2019-05-12T13:12:58.728Z,26.52
2019-05-12T13:15:25.219Z,26.80
2019-05-12T13:17:54.420Z,26.80
2019-05-12T13:20:23.939Z,28.95
2019-05-12T13:22:53.614Z,28.95
2019-05-12T13:25:22.623Z,30.14
2019-05-12T13:27:53.443Z,30.39
2019-05-12T13:30:24.213Z,30.39
2019-05-12T13:32:52.989Z,30.47
2019-05-12T13:35:23.607Z,30.71
2019-05-12T13:37:58.443Z,30.71
2019-05-12T13:42:35.683Z,31.59
2019-05-12T13:45:00.432Z,31.59
2019-05-12T13:47:35.335Z,31.73
2019-05-12T13:50:00.280Z,31.11
2019-05-12T13:52:30.491Z,31.11
2019-05-12T13:55:00.113Z,30.90
2019-05-12T13:57:30.763Z,32.08
2019-05-12T14:00:06.797Z,31.94
2019-05-12T14:05:15.071Z,32.19
2019-05-12T14:07:43.675Z,32.45
2019-05-12T14:10:13.878Z,32.45
2019-05-12T14:12:43.715Z,32.62
2019-05-12T14:15:14.494Z,32.52
2019-05-12T14:17:43.828Z,32.54
2019-05-12T14:20:15.717Z,32.54
2019-05-12T14:22:44.738Z,31.55
2019-05-12T14:25:15.254Z,31.35
2019-05-12T14:27:43.718Z,32.13
2019-05-12T14:30:13.805Z,32.29
2019-05-12T14:32:43.788Z,32.03
2019-05-12T14:35:10.937Z,32.93
2019-05-12T14:37:40.271Z,33.18
2019-05-12T14:40:08.972Z,33.01
2019-05-12T14:42:39.745Z,32.63
2019-05-12T14:45:07.948Z,32.63
2019-05-12T14:47:38.986Z,32.57
2019-05-12T14:50:06.713Z,32.49
2019-05-12T14:52:35.552Z,32.84
2019-05-12T14:55:05.621Z,32.84
2019-05-12T14:57:37.512Z,32.93
2019-05-12T15:00:04.769Z,33.03
2019-05-12T15:02:37.883Z,33.53
2019-05-12T15:05:41.418Z,33.52
2019-05-12T15:08:08.158Z,32.82
2019-05-12T15:10:36.659Z,32.56
2019-05-12T15:13:04.755Z,32.56
2019-05-12T15:15:33.636Z,32.72
2019-05-12T15:18:04.719Z,32.72
2019-05-12T15:20:33.193Z,33.06
2019-05-12T15:23:03.720Z,33.21
2019-05-12T15:25:35.460Z,32.35
2019-05-12T15:28:05.237Z,32.30
2019-05-12T15:30:33.709Z,32.30
2019-05-12T15:33:04.582Z,32.03
2019-05-12T15:35:34.223Z,32.03
2019-05-12T15:38:03.725Z,32.06
2019-05-12T15:40:33.448Z,32.06
2019-05-12T15:46:45.979Z,32.54
2019-05-12T15:49:14.130Z,32.54
2019-05-12T15:51:54.030Z,31.83
2019-05-12T15:54:14.767Z,32.26
2019-05-12T15:56:43.995Z,32.60
2019-05-12T15:59:14.613Z,32.68
2019-05-12T16:01:43.920Z,32.68
2019-05-12T16:04:15.034Z,32.75
2019-05-12T16:06:45.120Z,28.12
2019-05-12T16:09:13.232Z,24.64
2019-05-12T16:11:42.941Z,24.64
2019-05-12T16:14:11.694Z,23.74
2019-05-12T16:16:42.719Z,23.67
2019-05-12T16:19:12.065Z,23.25
2019-05-12T16:22:03.610Z,22.44
2019-05-12T16:24:31.116Z,22.44
2019-05-12T16:26:59.777Z,22.23
2019-05-12T16:29:28.523Z,23.10
2019-05-12T16:31:56.657Z,23.28
2019-05-12T16:34:25.097Z,23.04
2019-05-12T16:36:54.755Z,23.04
2019-05-12T16:39:24.064Z,22.94
2019-05-12T16:41:54.265Z,24.47
2019-05-12T16:44:26.066Z,25.79
2019-05-12T16:46:54.590Z,27.81
2019-05-12T16:49:24.943Z,27.81
2019-05-12T16:51:54.273Z,30.88
2019-05-12T16:54:24.041Z,30.88
2019-05-12T16:56:53.945Z,31.09
2019-05-12T16:59:24.619Z,31.34
2019-05-12T17:01:54.277Z,31.34
2019-05-12T17:04:23.746Z,31.61
2019-05-12T17:06:51.990Z,31.50
2019-05-12T17:09:20.002Z,31.14
2019-05-12T17:11:52.553Z,31.14
2019-05-12T17:14:20.385Z,30.39
2019-05-12T17:16:48.138Z,30.05
2019-05-12T17:19:16.870Z,29.67
2019-05-12T17:21:49.326Z,29.67
2019-05-12T17:24:15.358Z,29.58
2019-05-12T17:26:44.058Z,29.43
2019-05-12T17:29:13.864Z,29.43
2019-05-12T17:31:44.399Z,29.18
2019-05-12T17:35:14.716Z,29.82
2019-05-12T17:37:42.870Z,30.22
2019-05-12T17:40:15.589Z,30.22
2019-05-12T17:42:43.842Z,30.77
2019-05-12T17:45:15.802Z,30.77
2019-05-12T17:47:44.101Z,30.41
2019-05-12T17:50:10.823Z,30.61
2019-05-12T17:53:55.465Z,30.68
2019-05-12T17:56:33.219Z,30.64
2019-05-12T17:59:59.931Z,30.62
2019-05-12T18:02:28.015Z,30.87
2019-05-12T18:05:12.302Z,30.87
2019-05-12T18:07:40.124Z,30.59
2019-05-12T18:10:58.895Z,31.74
2019-05-12T18:13:28.325Z,30.82
2019-05-12T18:15:57.045Z,30.82
2019-05-12T18:18:33.207Z,29.58
2019-05-12T18:20:58.328Z,30.53
2019-05-12T18:23:30.452Z,31.03
2019-05-12T18:26:02.990Z,31.42
2019-05-12T18:28:33.315Z,31.51
2019-05-12T18:31:01.622Z,31.51
2019-05-12T18:34:58.113Z,30.91
2019-05-12T18:37:26.973Z,31.69
2019-05-12T18:39:56.079Z,31.82
2019-05-12T18:42:25.984Z,32.71
2019-05-12T18:44:54.800Z,32.86
2019-05-12T18:47:31.734Z,32.86
2019-05-12T18:49:56.235Z,32.24
2019-05-12T18:52:29.362Z,31.91
2019-05-12T18:54:57.685Z,32.42
2019-05-12T18:57:27.038Z,32.42
2019-05-12T19:00:01.559Z,31.50
2019-05-12T19:02:28.595Z,31.50
2019-05-12T19:04:56.236Z,31.03
2019-05-12T19:07:54.249Z,31.29
2019-05-12T19:10:24.100Z,30.92
2019-05-12T19:13:01.041Z,30.92
2019-05-12T19:15:52.684Z,30.76
2019-05-12T19:18:24.337Z,30.76
2019-05-12T19:20:48.977Z,30.34
2019-05-12T19:23:17.086Z,30.34
2019-05-12T19:25:44.746Z,30.33
2019-05-12T19:28:13.510Z,30.39
2019-05-12T19:30:41.027Z,30.01
2019-05-12T19:33:10.764Z,30.06
2019-05-12T19:35:38.154Z,29.78
2019-05-12T19:38:08.083Z,29.29
2019-05-12T19:40:36.054Z,29.80
2019-05-12T19:43:08.211Z,29.80
2019-05-12T19:45:33.804Z,28.89
2019-05-12T19:48:01.108Z,28.99
2019-05-12T19:50:28.311Z,29.20
2019-05-12T19:52:56.371Z,29.25
2019-05-12T19:55:27.315Z,29.25
2019-05-12T19:58:02.328Z,29.29
2019-05-12T20:00:26.810Z,29.81
2019-05-12T20:02:54.371Z,30.02
2019-05-12T20:05:23.768Z,30.16
2019-05-12T20:07:53.721Z,29.74
2019-05-12T20:10:24.142Z,29.52
2019-05-12T20:12:54.724Z,29.44
2019-05-12T20:15:20.407Z,29.69
2019-05-12T20:17:48.822Z,30.08
2019-05-12T20:20:17.949Z,30.48
2019-05-12T20:22:45.784Z,30.63
2019-05-12T20:25:14.622Z,30.95
2019-05-12T20:27:44.607Z,31.62
2019-05-12T20:30:17.184Z,32.11
2019-05-12T20:32:43.512Z,32.05
2019-05-12T20:35:11.210Z,32.02
2019-05-12T20:37:46.605Z,32.20
2019-05-12T20:40:08.364Z,32.31
2019-05-12T20:42:42.258Z,31.98
2019-05-12T20:45:05.686Z,32.48
2019-05-12T20:47:33.842Z,32.78
2019-05-12T20:50:04.517Z,32.78
2019-05-12T20:52:34.231Z,34.90
2019-05-12T20:55:03.694Z,35.46
2019-05-12T20:57:31.141Z,35.83
2019-05-12T21:00:04.883Z,35.38
2019-05-12T21:02:28.378Z,35.08
2019-05-12T21:05:00.978Z,35.03
2019-05-12T21:07:27.078Z,34.90
2019-05-12T21:09:54.692Z,35.05
2019-05-12T21:12:24.062Z,35.58
2019-05-12T21:14:53.301Z,35.58
2019-05-12T21:17:39.128Z,35.75
2019-05-12T21:19:56.856Z,35.16
2019-05-12T21:22:23.723Z,35.02
2019-05-12T21:24:53.247Z,35.46
2019-05-12T21:27:20.265Z,35.29
2019-05-12T21:29:47.519Z,35.90
2019-05-12T21:32:16.917Z,35.88
2019-05-12T21:34:44.565Z,35.81
2019-05-12T21:37:13.988Z,35.67
2019-05-12T21:39:46.847Z,35.61
2019-05-12T21:42:11.737Z,35.54
2019-05-12T21:44:41.437Z,35.64
2019-05-12T21:47:10.581Z,35.68
2019-05-12T21:49:42.578Z,35.68
2019-05-12T21:52:08.028Z,35.53
2019-05-12T21:54:39.454Z,35.41
2019-05-12T21:57:05.033Z,35.36
2019-05-12T21:59:35.387Z,35.08
2019-05-12T22:02:04.113Z,35.20
2019-05-12T22:04:35.274Z,35.22
2019-05-12T22:07:00.671Z,35.13
2019-05-12T22:09:32.890Z,34.95
2019-05-12T22:11:57.308Z,35.15
2019-05-12T22:14:24.708Z,35.13
2019-05-12T22:16:54.337Z,35.33
2019-05-12T22:19:21.989Z,35.26
2019-05-12T22:21:49.692Z,35.23
2019-05-12T22:24:17.066Z,35.13
2019-05-12T22:27:35.919Z,35.07
2019-05-12T22:30:04.417Z,35.41
2019-05-12T22:32:33.129Z,35.41
2019-05-12T22:35:00.354Z,35.28
2019-05-12T22:37:29.523Z,35.24
2019-05-12T22:39:57.515Z,34.81
2019-05-12T22:42:24.988Z,34.98
2019-05-12T22:45:01.212Z,35.21
2019-05-12T22:47:23.999Z,35.25
2019-05-12T22:49:55.340Z,35.25
2019-05-12T22:52:20.490Z,35.19
2019-05-12T22:54:50.957Z,35.17
2019-05-12T22:57:17.646Z,35.16
2019-05-12T22:59:46.038Z,35.09
2019-05-12T23:02:16.057Z,35.32
2019-05-12T23:04:44.015Z,35.25
2019-05-12T23:07:18.751Z,35.18
2019-05-12T23:09:43.869Z,34.99
2019-05-12T23:12:18.537Z,35.11
2019-05-12T23:14:44.416Z,35.27
2019-05-12T23:17:13.874Z,34.71
2019-05-12T23:19:51.575Z,35.14
2019-05-12T23:22:14.406Z,35.34
2019-05-12T23:24:44.336Z,35.43
2019-05-12T23:27:13.697Z,35.25
2019-05-12T23:29:44.364Z,35.33
2019-05-12T23:32:15.033Z,35.30
2019-05-12T23:34:54.094Z,35.32
2019-05-12T23:37:17.278Z,35.27
2019-05-12T23:39:46.454Z,35.27
2019-05-12T23:44:00.550Z,35.41
2019-05-12T23:46:30.026Z,35.35
2019-05-12T23:48:59.449Z,35.52
2019-05-12T23:51:28.746Z,35.30
2019-05-12T23:53:57.877Z,35.40
2019-05-12T23:56:27.360Z,35.27
2019-05-12T23:58:56.721Z,35.08
